• Join FlightAware (Why Join?)
  • Login
  • US Flag 
04:48AM EDT


 

Airport Tracker/Info


-or-


 

Live Flight TrackerFlight Track Log ✈ N54PT ✈ 13-Aug-2013 ✈ KBFI - KBFI

Flight Track Log - Related Links

Times and Time Zones

All times are in EDT time to prevent confusion due to time zone crossing. See the N54PT flight status page for this flight to view local times or setup timezone preferences in your user account.

Time Position Orientation Groundspeed Altitude Reporting Facility
EDT Latitude Longitude Course Direction KTS MPH feet Rate Location/Type
10:25AM 47.5125 -122.2906 197° South 138 159 1,000  Level Seattle Center
10:26AM 47.4786 -122.3061 197° South 152 175 2,900 1,200 Climbing Seattle Center
10:27AM 47.4842 -122.3719 277° West 159 183 4,000 660 Climbing Seattle Center
10:28AM 47.4753 -122.4161 253° West 193 222 4,100  Climbing Seattle Center
10:29AM 47.4275 -122.4914 227° Southwest 217 250 4,100  Level Seattle Center
10:30AM 47.3978 -122.5419 229° Southwest 215 247 4,100 -60 Level Seattle Center
10:31AM 47.3581 -122.6069 228° Southwest 216 249 4,000 480 Descending Seattle Center
10:32AM 47.3283 -122.6733 237° Southwest 193 222 5,100 840 Climbing Seattle Center
10:33AM 47.3139 -122.7458 254° West 186 214 5,800 780 Climbing Seattle Center
10:34AM 47.2964 -122.8206 251° West 178 205 6,800 900 Climbing Seattle Center
10:35AM 47.2794 -122.8836 248° West 168 193 7,700 540 Climbing Seattle Center
10:36AM 47.2608 -122.9478 247° West 170 196 8,000 120 Climbing Seattle Center
10:37AM 47.2381 -123.0239 246° West 203 234 8,000  Level Seattle Center
10:38AM 47.2147 -123.1067 247° West 219 252 8,000  Level Seattle Center
10:39AM 47.1933 -123.1989 251° West 222 255 8,000  Level Seattle Center
10:40AM 47.1725 -123.2844 250° West 222 255 8,000  Level Seattle Center
10:41AM 47.1547 -123.3714 253° West 223 257 8,000  Level Seattle Center
10:42AM 47.1386 -123.4586 255° West 222 255 8,000  Level Seattle Center
10:43AM 47.1192 -123.5517 253° West 222 255 8,000  Level Seattle Center
10:44AM 47.1017 -123.6272 251° West 224 258 8,000  Level Seattle Center
10:45AM 47.0803 -123.7111 250° West 223 257 8,000 60 Level Seattle Center
10:46AM 47.0492 -123.8081 245° Southwest 222 255 8,200  Climbing Seattle Center
10:47AM 47.0244 -123.8869 245° Southwest 218 251 8,100 -60 Descending Seattle Center
10:48AM 46.9981 -123.9675 244° Southwest 221 254 8,100  Level Seattle Center
10:49AM 46.9725 -124.0503 246° West 223 257 8,100  Level Seattle Center
10:50AM 46.9489 -124.1431 250° West 224 258 8,100  Level Seattle Center
10:51AM 47.0100 -124.1889 333° Northwest 238 274 8,100  Level Seattle Center
10:52AM 47.0525 -124.2600 311° West 233 268 8,100  Level Seattle Center
10:53AM 47.0944 -124.3319 311° West 233 268 8,100  Level Seattle Center
10:54AM 47.1525 -124.3714 335° Northwest 233 268 8,100  Level Seattle Center
10:55AM 47.2117 -124.4117 335° Northwest 233 268 8,100  Level Seattle Center
10:56AM 47.2703 -124.4547 334° Northwest 234 269 8,100  Level Seattle Center
10:57AM 47.3322 -124.4842 342° North 235 270 8,100 960 Level Seattle Center
10:58AM 47.3992 -124.5122 344° North 221 254 10,100 1,680 Climbing Seattle Center
10:59AM 47.4469 -124.5278 348° North 195 224 11,600 1,560 Climbing Seattle Center
11:00AM 47.4961 -124.5517 342° North 187 215 13,300 1,560 Climbing Seattle Center
11:01AM 47.5444 -124.5725 344° North 184 212 14,800 1,380 Climbing Seattle Center
11:02AM 47.5922 -124.5922 344° North 181 208 16,200 1,320 Climbing Seattle Center
11:03AM 47.6417 -124.6111 346° North 182 209 17,500 1,140 Climbing Seattle Center
11:04AM 47.6919 -124.6256 349° North 184 212 18,600 1,080 Climbing Seattle Center
11:05AM 47.7394 -124.6467 343° North 180 207 19,800 1,080 Climbing Seattle Center
11:06AM 47.7878 -124.6611 349° North 178 205 20,800 960 Climbing Seattle Center
11:07AM 47.8364 -124.6797 346° North 180 207 21,800 540 Climbing Seattle Center
11:08AM 47.8353 -124.7375 268° West 187 215 22,000  Climbing Seattle Center
11:09AM 47.7803 -124.7192 167° South 207 238 21,800 -600 Descending Seattle Center
11:10AM 47.7111 -124.6606 150° Southeast 238 274 20,900 -2,580 Descending Seattle Center
11:11AM 47.6342 -124.5978 151° Southeast 306 352 16,600 -4,380 Descending Seattle Center
11:12AM 47.5558 -124.5347 151° Southeast 317 365 12,000 -4,020 Descending Seattle Center
11:13AM 47.4789 -124.4756 153° Southeast 318 366 8,500 -1,740 Descending Seattle Center
11:14AM 47.4331 -124.4106 136° Southeast 264 304 8,500 -420 Level Seattle Center
11:15AM 47.4225 -124.3111 99° East 254 292 7,700 -480 Descending Seattle Center
11:16AM 47.4303 -124.2100 83° East 253 291 7,600 -60 Descending Seattle Center
11:18AM 47.4369 -124.1114 84° East 248 285 7,600  Level Seattle Center
11:19AM 47.4414 -124.0164 86° East 241 277 7,600  Level Seattle Center
11:20AM 47.4461 -123.9214 86° East 237 273 7,600  Level Seattle Center
11:21AM 47.4508 -123.8281 86° East 234 269 7,600  Level Seattle Center
11:22AM 47.4575 -123.7139 85° East 232 267 7,600  Level Seattle Center
11:23AM 47.4644 -123.6167 84° East 235 270 7,600  Level Seattle Center
11:24AM 47.4683 -123.5306 86° East 232 267 7,600  Level Seattle Center
11:25AM 47.4725 -123.4367 86° East 232 267 7,600  Level Seattle Center
11:26AM 47.4778 -123.3425 85° East 233 268 7,600 -60 Level Seattle Center
11:27AM 47.4836 -123.2281 86° East 235 270 7,500 -360 Descending Seattle Center
11:28AM 47.4867 -123.1394 87° East 239 275 7,000 -480 Descending Seattle Center
11:29AM 47.4956 -123.0400 82° East 248 285 6,600 -540 Descending Seattle Center
11:30AM 47.4992 -122.9236 87° East 243 280 5,900 -660 Descending Seattle Center
11:31AM 47.5056 -122.8383 84° East 245 282 5,300 -1,140 Descending Seattle Center
11:32AM 47.5114 -122.7247 86° East 242 278 3,600 -1,260 Descending Seattle Center
11:33AM 47.5214 -122.6531 78° East 232 267 2,900 -960 Descending Seattle Center
11:34AM 47.5358 -122.5503 78° East 223 257 1,800 -660 Descending Seattle Center
11:35AM 47.5344 -122.4656 91° East 198 228 1,600 -240 Descending Seattle Center
11:36AM 47.5406 -122.3933 83° East 172 198 1,400 -480 Descending Seattle Center
11:37AM 47.5578 -122.3378 65° Northeast 135 155 700 -600 Descending Seattle Center
11:38AM 47.5308 -122.3061 142° Southeast 126 145 100 -540 Descending Seattle Center
11:40AM 47.5300 -122.3020 90° East  Level Estimated